Mount Vernon, Mississippi
Current Conditions -  °F | °C
As of 9:53 AM on Sunday 23 Nov 2014 (Local Time) from KTUP Reporting Station
Light Rain Light Rain  
Wind Chill: 59°   Ceiling: 500
Heat Index: 59°   Visibility: 4mi
Dew Point: 57°   Wind: 6mph
Humidity: 93%   Direction: 130°SE
Pressure: 29.69"   Gusts: NA
Location:  34.2235°N, 88.7398°W
Report Text: KTUP 231553Z 13005KT 4SM -RA BR OVC005 15/14 A2969 RMK AO2 RAE05B24 CIG 003V008 SLP052 P0005 T01500139 $
Loading
Personal Weather Stations






























Interactive Weather Map New forecast layout! Learn more

10-Day Weather Forecast

Advertisements
Track Severe Weather on mobile